Country
Station

 

Weather  for  Northolt  -  United Kingdom    United Kingdom

  
22 °C (72 °F)
    
 
 

Current METAR for Northolt is :

EGWU 171050Z 29010KT 9999 FEW043 SCT060 22/10 Q1016 NOSIG

 

This is a report for Northolt - United Kingdom.
 
The report was made 32 minutes ago, at 10:50 UTC .
The wind was blowing at a speed of 5.1 meters per second (11.5 miles per hour) from west/northwest (290°).
 
The temperature was 22 °C (72 °F), with a dew-point at 10 °C (50 °F).
The temperature felt like 25 °C (77 °F).
 
The atmospheric pressure was 1016 hPa (30.00 inHg).
The relative humidity was 46.4%.
 
There were a few clouds at a height of 1311 meters (4300 feet) and scattered clouds at a height of 1829 meters (6000 feet).
 
The overall visibility was greater than 10 kilometers (6.2 miles).
 

 
 
 
 

Country :   A   B   C   D   E   F   G   H   I   J   K   L   M   N   O   P   Q   R   S   T   U   V   W   Y   Z

 

Site Info  |  Disclaimer  |  Credits  |  Privacy
Contact us  |  Add to favorites
© 2013-2018 METARs - All rights reserved